Molino, Pennsylvania
Current Conditions -  °F | °C
As of 4:54 AM on Wednesday 22 Oct 2014 (Local Time) from KRDG Reporting Station
Overcast Overcast  
Wind Chill: 54°   Ceiling: 2000
Heat Index: 54°   Visibility: 10mi
Dew Point: 48°   Wind: 3mph
Humidity: 80%   Direction: 360°N
Pressure: 29.89"   Gusts: NA
Location:  40.633°N, 76.068°W
Report Text: KRDG 220854Z 36003KT 10SM OVC020 12/09 A2989 RMK AO2 SLP124 T01220089 55000
Loading
Personal Weather Stations






























Interactive Weather Map
Tropical Storm Tracking
New forecast layout! Learn more

10-Day Weather Forecast

Advertisements
Track Severe Weather on mobile